createdAt,value
2023-02-03T00:02:16.428Z,9.90
2023-02-03T00:04:44.068Z,9.90
2023-02-03T00:07:13.993Z,9.90
2023-02-03T00:09:41.872Z,9.80
2023-02-03T00:12:10.120Z,9.90
2023-02-03T00:14:38.110Z,9.80
2023-02-03T00:17:06.135Z,9.80
2023-02-03T00:19:33.659Z,9.80
2023-02-03T00:22:01.245Z,9.70
2023-02-03T00:24:28.932Z,9.70
2023-02-03T00:26:56.501Z,9.80
2023-02-03T00:29:26.059Z,9.80
2023-02-03T00:31:54.514Z,9.80
2023-02-03T00:34:22.401Z,9.80
2023-02-03T00:36:50.119Z,9.80
2023-02-03T00:39:17.753Z,9.90
2023-02-03T00:41:47.139Z,9.90
2023-02-03T00:44:15.259Z,9.90
2023-02-03T00:46:42.851Z,9.90
2023-02-03T00:49:10.421Z,9.90
2023-02-03T00:51:38.050Z,10.00
2023-02-03T00:54:05.660Z,10.00
2023-02-03T00:56:33.432Z,10.00
2023-02-03T00:59:01.215Z,10.10
2023-02-03T01:01:28.983Z,10.10
2023-02-03T01:03:57.104Z,10.10
2023-02-03T01:06:24.916Z,10.10
2023-02-03T01:08:55.040Z,10.10
2023-02-03T01:11:27.231Z,10.10
2023-02-03T01:13:56.875Z,10.10
2023-02-03T01:16:27.065Z,10.10
2023-02-03T01:18:56.342Z,10.00
2023-02-03T01:21:26.223Z,10.10
2023-02-03T01:23:54.728Z,10.00
2023-02-03T01:26:23.692Z,10.00
2023-02-03T01:28:59.985Z,10.00
2023-02-03T01:31:39.596Z,10.00
2023-02-03T01:34:12.407Z,10.00
2023-02-03T01:36:40.172Z,10.00
2023-02-03T01:39:08.228Z,10.00
2023-02-03T01:41:39.078Z,10.00
2023-02-03T01:44:44.482Z,10.00
2023-02-03T01:47:35.019Z,10.00
2023-02-03T01:50:27.570Z,10.00
2023-02-03T01:52:59.860Z,10.10
2023-02-03T01:55:34.672Z,10.00
2023-02-03T01:58:22.469Z,10.10
2023-02-03T02:00:50.298Z,10.10
2023-02-03T02:03:22.445Z,10.10
2023-02-03T02:05:58.063Z,10.10
2023-02-03T02:08:25.778Z,10.20
2023-02-03T02:10:54.333Z,10.20
2023-02-03T02:13:23.344Z,10.10
2023-02-03T02:16:15.075Z,10.10
2023-02-03T02:19:20.565Z,10.10
2023-02-03T02:22:14.437Z,10.10
2023-02-03T02:25:09.763Z,10.10
2023-02-03T02:27:55.600Z,10.10
2023-02-03T02:30:54.092Z,10.10
2023-02-03T02:33:22.413Z,10.00
2023-02-03T02:36:06.809Z,10.10
2023-02-03T02:38:46.564Z,10.10
2023-02-03T02:41:24.517Z,10.10
2023-02-03T02:44:16.795Z,10.10
2023-02-03T02:46:50.604Z,10.70
2023-02-03T02:49:40.357Z,10.10
2023-02-03T02:52:09.566Z,10.10
2023-02-03T02:54:42.275Z,10.10
2023-02-03T02:57:13.169Z,10.10
2023-02-03T02:59:40.837Z,10.10
2023-02-03T03:02:11.809Z,10.10
2023-02-03T03:04:42.137Z,10.20
2023-02-03T03:07:18.608Z,10.20
2023-02-03T03:10:01.043Z,10.20
2023-02-03T03:12:33.860Z,10.20
2023-02-03T03:15:07.109Z,10.20
2023-02-03T03:17:54.146Z,10.10
2023-02-03T03:20:26.636Z,10.10
2023-02-03T03:23:01.329Z,10.20
2023-02-03T03:25:36.576Z,10.20
2023-02-03T03:28:13.716Z,10.20
2023-02-03T03:30:41.763Z,10.20
2023-02-03T03:33:10.129Z,10.20
2023-02-03T03:36:02.205Z,10.20
2023-02-03T03:38:39.266Z,10.20
2023-02-03T03:41:20.137Z,10.20
2023-02-03T03:43:52.320Z,10.20
2023-02-03T03:46:25.961Z,10.20
2023-02-03T03:49:00.005Z,10.20
2023-02-03T03:51:48.387Z,10.20
2023-02-03T03:54:19.047Z,10.20
2023-02-03T03:56:58.834Z,10.20
2023-02-03T03:59:31.456Z,10.20
2023-02-03T04:02:04.738Z,10.20
2023-02-03T04:04:36.652Z,10.20
2023-02-03T04:07:04.421Z,10.20
2023-02-03T04:09:32.461Z,10.20
2023-02-03T04:12:03.044Z,10.20
2023-02-03T04:14:37.965Z,10.20
2023-02-03T04:17:06.011Z,10.20
2023-02-03T04:19:33.570Z,10.20
2023-02-03T04:22:01.137Z,10.10
2023-02-03T04:24:28.658Z,10.20
2023-02-03T04:26:56.270Z,10.10
2023-02-03T04:29:23.804Z,10.20
2023-02-03T04:31:51.414Z,10.10
2023-02-03T04:34:19.056Z,10.10
2023-02-03T04:36:46.666Z,10.10
2023-02-03T04:39:14.227Z,10.10
2023-02-03T04:41:41.871Z,10.10
2023-02-03T04:44:09.655Z,10.10
2023-02-03T04:46:37.239Z,10.10
2023-02-03T04:49:04.816Z,10.00
2023-02-03T04:51:32.405Z,10.00
2023-02-03T04:53:59.944Z,10.10
2023-02-03T04:56:27.563Z,10.00
2023-02-03T04:58:55.107Z,10.00
2023-02-03T05:01:22.791Z,10.00
2023-02-03T05:03:50.371Z,10.00
2023-02-03T05:06:22.095Z,10.10
2023-02-03T05:08:49.624Z,10.10
2023-02-03T05:11:17.068Z,10.00
2023-02-03T05:13:44.759Z,10.10
2023-02-03T05:16:12.270Z,10.10
2023-02-03T05:18:40.064Z,10.10
2023-02-03T05:21:07.896Z,10.10
2023-02-03T05:23:36.719Z,10.10
2023-02-03T05:26:04.618Z,10.20
2023-02-03T05:28:32.241Z,10.10
2023-02-03T05:31:01.617Z,10.10
2023-02-03T05:33:30.014Z,10.20
2023-02-03T05:35:57.548Z,10.20
2023-02-03T05:38:25.268Z,10.20
2023-02-03T05:41:11.844Z,10.20
2023-02-03T05:43:39.444Z,10.20
2023-02-03T05:46:07.697Z,10.20
2023-02-03T05:48:35.669Z,10.10
2023-02-03T05:51:03.331Z,10.10
2023-02-03T05:53:30.891Z,10.10
2023-02-03T05:55:58.520Z,10.10
2023-02-03T05:58:26.091Z,10.00
2023-02-03T06:00:53.683Z,10.00
2023-02-03T06:03:21.280Z,10.00
2023-02-03T06:05:49.045Z,10.00
2023-02-03T06:08:16.726Z,10.00
2023-02-03T06:10:44.381Z,10.00
2023-02-03T06:13:14.012Z,10.00
2023-02-03T06:15:42.156Z,10.00
2023-02-03T06:18:09.961Z,10.00
2023-02-03T06:20:37.538Z,9.90
2023-02-03T06:23:05.043Z,10.00
2023-02-03T06:25:33.249Z,10.00
2023-02-03T06:28:00.957Z,10.00
2023-02-03T06:30:29.378Z,10.00
2023-02-03T06:32:57.216Z,10.00
2023-02-03T06:35:24.873Z,10.00
2023-02-03T06:37:52.449Z,10.00
2023-02-03T06:40:20.181Z,10.00
2023-02-03T06:42:48.327Z,10.00
2023-02-03T06:45:16.344Z,10.00
2023-02-03T06:47:45.368Z,10.00
2023-02-03T06:50:15.321Z,9.90
2023-02-03T06:52:43.067Z,9.90
2023-02-03T06:55:11.061Z,9.90
2023-02-03T06:57:49.342Z,9.90
2023-02-03T07:00:19.290Z,9.80
2023-02-03T07:02:52.839Z,9.90
2023-02-03T07:05:20.817Z,9.80
2023-02-03T07:07:48.526Z,9.80
2023-02-03T07:10:16.575Z,9.80
2023-02-03T07:12:44.401Z,9.80
2023-02-03T07:15:13.379Z,9.80
2023-02-03T07:17:41.109Z,9.80
2023-02-03T07:20:09.701Z,9.80
2023-02-03T07:22:38.707Z,9.90
2023-02-03T07:25:06.588Z,9.90
2023-02-03T07:27:34.132Z,9.90
2023-02-03T07:30:01.864Z,9.90
2023-02-03T07:32:29.508Z,9.90
2023-02-03T07:34:57.304Z,9.90
2023-02-03T07:37:25.085Z,9.90
2023-02-03T07:39:52.704Z,9.90
2023-02-03T07:42:20.252Z,9.90
2023-02-03T07:44:51.237Z,9.90
2023-02-03T07:47:18.829Z,9.90
2023-02-03T07:49:46.386Z,9.90
2023-02-03T07:52:14.013Z,9.90
2023-02-03T07:54:41.686Z,9.90
2023-02-03T07:57:09.238Z,9.90
2023-02-03T07:59:36.735Z,9.90
2023-02-03T08:02:05.097Z,9.90
2023-02-03T08:04:32.686Z,9.90
2023-02-03T08:07:00.415Z,9.90
2023-02-03T08:09:28.116Z,10.00
2023-02-03T08:11:55.868Z,10.00
2023-02-03T08:14:23.991Z,10.00
2023-02-03T08:16:51.571Z,10.00
2023-02-03T08:19:19.142Z,10.00
2023-02-03T08:21:46.727Z,10.00
2023-02-03T08:24:14.288Z,10.00
2023-02-03T08:26:41.828Z,9.90
2023-02-03T08:29:11.572Z,9.90
2023-02-03T08:31:41.538Z,9.90
2023-02-03T08:34:09.236Z,9.90
2023-02-03T08:36:39.999Z,9.90
2023-02-03T08:39:07.622Z,9.90
2023-02-03T08:41:35.223Z,9.90
2023-02-03T08:44:02.827Z,9.90
2023-02-03T08:46:30.409Z,10.00
2023-02-03T08:48:58.083Z,10.00
2023-02-03T08:51:25.685Z,10.00
2023-02-03T08:53:53.304Z,10.00
2023-02-03T08:56:20.852Z,10.10
2023-02-03T08:58:48.448Z,10.00
2023-02-03T09:01:16.390Z,10.10
2023-02-03T09:03:44.028Z,10.10
2023-02-03T09:06:13.228Z,10.10
2023-02-03T09:08:40.898Z,10.20
2023-02-03T09:11:10.721Z,10.20
2023-02-03T09:13:39.660Z,10.20
2023-02-03T09:16:08.202Z,10.20
2023-02-03T09:18:36.070Z,10.30
2023-02-03T09:21:13.874Z,10.30
2023-02-03T09:23:48.562Z,10.30
2023-02-03T09:26:16.235Z,10.30
2023-02-03T09:28:44.079Z,10.30
2023-02-03T09:31:19.877Z,10.40
2023-02-03T09:33:47.614Z,10.40
2023-02-03T09:36:15.355Z,10.40
2023-02-03T09:38:43.000Z,10.40
2023-02-03T09:41:28.436Z,10.40
2023-02-03T09:44:08.813Z,10.50
2023-02-03T09:46:47.499Z,10.60
2023-02-03T09:49:25.624Z,10.60
2023-02-03T09:52:02.601Z,10.60
2023-02-03T09:54:58.407Z,10.60
2023-02-03T09:57:29.532Z,10.70
2023-02-03T10:00:01.925Z,10.70
2023-02-03T10:03:01.211Z,10.80
2023-02-03T10:05:49.224Z,10.80
2023-02-03T10:08:16.800Z,10.90
2023-02-03T10:11:09.451Z,10.90
2023-02-03T10:13:51.956Z,11.00
2023-02-03T10:16:27.896Z,11.10
2023-02-03T10:18:59.597Z,11.10
2023-02-03T10:21:27.128Z,11.10
2023-02-03T10:23:57.098Z,11.20
2023-02-03T10:26:28.300Z,11.20
2023-02-03T10:29:06.551Z,11.20
2023-02-03T10:31:36.766Z,11.20
2023-02-03T10:34:11.924Z,11.30
2023-02-03T10:36:51.535Z,11.30
2023-02-03T10:39:49.900Z,11.40
2023-02-03T10:42:18.545Z,11.40
2023-02-03T10:44:56.462Z,11.50
2023-02-03T10:47:26.017Z,11.60
2023-02-03T10:49:57.151Z,11.70
2023-02-03T10:52:36.366Z,11.70
2023-02-03T10:55:29.119Z,11.80
2023-02-03T10:57:57.765Z,12.00
2023-02-03T11:00:31.732Z,12.10
2023-02-03T11:03:05.655Z,12.20
2023-02-03T11:05:33.661Z,12.30
2023-02-03T11:08:02.228Z,12.40
2023-02-03T11:10:35.962Z,12.40
2023-02-03T11:13:20.758Z,12.60
2023-02-03T11:16:01.189Z,12.50
2023-02-03T11:18:55.278Z,12.80
2023-02-03T11:21:24.271Z,12.80
2023-02-03T11:24:04.992Z,12.90
2023-02-03T11:26:57.360Z,13.00
2023-02-03T11:29:29.222Z,13.20
2023-02-03T11:32:00.325Z,13.20
2023-02-03T11:34:43.000Z,13.30
2023-02-03T11:37:27.202Z,13.30
2023-02-03T11:40:22.025Z,13.50
2023-02-03T11:42:49.610Z,13.50
2023-02-03T11:45:27.778Z,13.60
2023-02-03T11:48:07.317Z,13.80
2023-02-03T11:50:42.032Z,13.80
2023-02-03T11:53:31.246Z,13.80
2023-02-03T11:56:17.690Z,13.70
2023-02-03T11:58:51.238Z,13.60
2023-02-03T12:01:56.158Z,13.50
2023-02-03T12:05:00.468Z,13.40
2023-02-03T12:07:28.452Z,13.40
2023-02-03T12:10:14.055Z,13.30
2023-02-03T12:12:44.432Z,13.30
2023-02-03T12:15:33.544Z,13.40
2023-02-03T12:18:15.609Z,13.50
2023-02-03T12:21:10.829Z,13.50
2023-02-03T12:23:57.313Z,13.50
2023-02-03T12:26:34.343Z,13.50
2023-02-03T12:29:04.691Z,13.40
2023-02-03T12:31:38.014Z,13.30
2023-02-03T12:34:13.762Z,13.30
2023-02-03T12:36:47.955Z,13.20
2023-02-03T12:39:15.612Z,13.10
2023-02-03T12:41:50.306Z,13.10
2023-02-03T12:44:29.236Z,13.00
2023-02-03T12:47:01.742Z,12.90
2023-02-03T12:49:39.629Z,12.80
2023-02-03T12:52:36.383Z,12.80
2023-02-03T12:55:03.885Z,12.70
2023-02-03T12:57:39.048Z,12.70
2023-02-03T13:00:28.242Z,12.70
2023-02-03T13:03:04.877Z,12.70
2023-02-03T13:05:48.309Z,12.70
2023-02-03T13:08:34.868Z,12.60
2023-02-03T13:11:21.155Z,12.60
2023-02-03T13:13:58.930Z,12.60
2023-02-03T13:16:36.929Z,12.60
2023-02-03T13:19:11.162Z,12.50
2023-02-03T13:21:39.076Z,12.50
2023-02-03T13:24:07.221Z,12.40
2023-02-03T13:26:51.588Z,12.40
2023-02-03T13:29:27.894Z,12.30
2023-02-03T13:32:24.949Z,12.20
2023-02-03T13:35:03.838Z,12.20
2023-02-03T13:37:34.223Z,12.20
2023-02-03T13:40:23.490Z,12.20
2023-02-03T13:43:06.031Z,12.20
2023-02-03T13:45:43.224Z,12.30
2023-02-03T13:48:24.405Z,12.20
2023-02-03T13:51:08.484Z,12.20
2023-02-03T13:53:41.385Z,12.20
2023-02-03T13:56:25.794Z,12.20
2023-02-03T13:59:25.053Z,12.10
2023-02-03T14:02:21.375Z,12.10
2023-02-03T14:04:48.996Z,12.10
2023-02-03T14:07:40.723Z,12.00
2023-02-03T14:10:14.597Z,12.00
2023-02-03T14:12:51.148Z,11.90
2023-02-03T14:15:26.728Z,11.90
2023-02-03T14:17:58.653Z,11.90
2023-02-03T14:20:29.422Z,11.90
2023-02-03T14:23:08.987Z,11.90
2023-02-03T14:25:50.151Z,12.00
2023-02-03T14:28:25.228Z,12.00
2023-02-03T14:31:16.090Z,12.00
2023-02-03T14:33:54.121Z,12.00
2023-02-03T14:36:35.639Z,12.00
2023-02-03T14:39:17.911Z,12.00
2023-02-03T14:41:51.625Z,12.00
2023-02-03T14:44:22.083Z,12.00
2023-02-03T14:47:26.882Z,12.00
2023-02-03T14:50:09.276Z,12.00
2023-02-03T14:52:48.333Z,12.00
2023-02-03T14:55:36.182Z,12.10
2023-02-03T14:58:07.541Z,12.20
2023-02-03T15:00:37.565Z,12.10
2023-02-03T15:03:11.156Z,12.20
2023-02-03T15:05:47.260Z,12.10
2023-02-03T15:08:40.845Z,12.00
2023-02-03T15:11:29.044Z,12.00
2023-02-03T15:14:15.112Z,12.00
2023-02-03T15:16:44.627Z,11.90
2023-02-03T15:19:20.725Z,11.90
2023-02-03T15:21:48.561Z,11.90
2023-02-03T15:24:21.115Z,11.90
2023-02-03T15:26:51.648Z,11.80
2023-02-03T15:29:28.607Z,11.80
2023-02-03T15:32:02.747Z,11.80
2023-02-03T15:34:36.223Z,11.80
2023-02-03T15:37:10.420Z,11.80
2023-02-03T15:39:49.801Z,11.70
2023-02-03T15:42:58.824Z,11.70
2023-02-03T15:45:46.101Z,11.70
2023-02-03T15:48:29.651Z,11.70
2023-02-03T15:51:25.160Z,11.70
2023-02-03T15:54:01.102Z,11.70
2023-02-03T15:56:59.196Z,11.70
2023-02-03T15:59:36.936Z,11.60
2023-02-03T16:02:26.394Z,11.60
2023-02-03T16:04:54.741Z,11.60
2023-02-03T16:07:25.908Z,11.60
2023-02-03T16:09:58.145Z,11.60
2023-02-03T16:12:31.177Z,11.60
2023-02-03T16:15:00.353Z,11.60
2023-02-03T16:17:34.374Z,11.50
2023-02-03T16:20:10.892Z,11.50
2023-02-03T16:22:43.598Z,11.50
2023-02-03T16:25:26.453Z,11.40
2023-02-03T16:28:21.444Z,11.50
2023-02-03T16:31:20.941Z,11.40
2023-02-03T16:34:08.923Z,11.40
2023-02-03T16:37:02.856Z,11.40
2023-02-03T16:39:48.951Z,11.30
2023-02-03T16:42:40.242Z,11.30
2023-02-03T16:45:36.980Z,11.30
2023-02-03T16:48:23.821Z,11.30
2023-02-03T16:50:54.302Z,11.30
2023-02-03T16:53:24.890Z,11.20
2023-02-03T16:55:54.923Z,11.20
2023-02-03T16:58:22.676Z,11.20
2023-02-03T17:00:52.453Z,11.20
2023-02-03T17:03:25.823Z,11.10
2023-02-03T17:05:54.570Z,11.10
2023-02-03T17:08:24.147Z,11.10
2023-02-03T17:10:52.046Z,11.00
2023-02-03T17:13:22.169Z,11.00
2023-02-03T17:15:54.903Z,11.00
2023-02-03T17:18:22.964Z,11.00
2023-02-03T17:20:50.785Z,11.00
2023-02-03T17:23:18.651Z,10.90
2023-02-03T17:25:48.299Z,10.90
2023-02-03T17:28:16.058Z,11.00
2023-02-03T17:30:43.758Z,10.90
2023-02-03T17:33:14.044Z,10.90
2023-02-03T17:35:43.601Z,10.90
2023-02-03T17:38:12.717Z,10.90
2023-02-03T17:54:33.591Z,10.80
2023-02-03T17:57:01.220Z,10.70
2023-02-03T17:59:29.086Z,10.70
2023-02-03T18:01:56.710Z,10.70
2023-02-03T18:04:24.308Z,10.70
2023-02-03T18:06:53.483Z,10.70
2023-02-03T18:09:21.630Z,10.70
2023-02-03T18:11:49.289Z,10.70
2023-02-03T18:14:18.070Z,10.80
2023-02-03T18:16:45.956Z,10.70
2023-02-03T18:19:16.371Z,10.80
2023-02-03T18:21:44.508Z,10.80
2023-02-03T18:24:13.578Z,10.80
2023-02-03T18:26:51.031Z,10.80
2023-02-03T18:29:19.395Z,10.80
2023-02-03T18:31:48.208Z,10.80
2023-02-03T18:34:16.606Z,10.80
2023-02-03T18:36:45.041Z,10.80
2023-02-03T18:39:15.170Z,10.80
2023-02-03T18:41:42.837Z,10.80
2023-02-03T18:44:10.596Z,10.80
2023-02-03T18:46:38.245Z,10.80
2023-02-03T18:49:09.410Z,10.80
2023-02-03T18:51:37.320Z,10.80
2023-02-03T18:54:05.203Z,10.80
2023-02-03T18:56:35.496Z,10.70
2023-02-03T18:59:11.229Z,10.70
2023-02-03T19:01:39.686Z,10.70
2023-02-03T19:04:07.470Z,10.70
2023-02-03T19:06:36.063Z,10.70
2023-02-03T19:09:05.928Z,10.60
2023-02-03T19:11:35.028Z,10.60
2023-02-03T19:14:02.648Z,10.60
2023-02-03T19:16:30.578Z,10.60
2023-02-03T19:18:58.138Z,10.50
2023-02-03T19:21:26.079Z,10.50
2023-02-03T19:23:53.933Z,10.50
2023-02-03T19:26:21.608Z,10.50
2023-02-03T19:28:49.467Z,10.50
2023-02-03T19:31:17.347Z,10.50
2023-02-03T19:33:45.481Z,10.50
2023-02-03T19:36:13.208Z,10.40
2023-02-03T19:38:40.817Z,10.40
2023-02-03T19:41:09.591Z,10.40
2023-02-03T19:43:37.379Z,10.40
2023-02-03T19:46:05.220Z,10.40
2023-02-03T19:48:33.291Z,10.40
2023-02-03T19:51:01.408Z,10.40
2023-02-03T19:53:29.144Z,10.40
2023-02-03T19:55:57.061Z,10.40
2023-02-03T19:58:25.130Z,10.40
2023-02-03T20:00:53.038Z,10.30
2023-02-03T20:03:20.706Z,11.90
2023-02-03T20:05:49.156Z,10.30
2023-02-03T20:08:16.871Z,10.30
2023-02-03T20:10:45.471Z,10.30
2023-02-03T20:13:14.108Z,10.20
2023-02-03T20:15:42.295Z,10.20
2023-02-03T20:18:09.885Z,10.20
2023-02-03T20:20:38.551Z,10.20
2023-02-03T20:23:06.198Z,10.20
2023-02-03T20:25:33.884Z,10.20
2023-02-03T20:28:02.612Z,10.20
2023-02-03T20:30:30.972Z,10.10
2023-02-03T20:32:58.821Z,10.10
2023-02-03T20:35:27.093Z,10.20
2023-02-03T20:37:54.733Z,10.10
2023-02-03T20:40:24.392Z,10.10
2023-02-03T20:42:53.227Z,10.10
2023-02-03T20:45:23.101Z,10.10
2023-02-03T20:47:51.506Z,10.10
2023-02-03T20:50:25.047Z,10.00
2023-02-03T20:52:54.736Z,10.00
2023-02-03T20:55:23.574Z,10.00
2023-02-03T20:57:54.347Z,10.00
2023-02-03T21:00:25.230Z,10.00
2023-02-03T21:03:12.457Z,10.00
2023-02-03T21:05:42.347Z,10.00
2023-02-03T21:08:18.375Z,9.90
2023-02-03T21:10:47.941Z,9.90
2023-02-03T21:13:36.123Z,9.90
2023-02-03T21:16:16.428Z,9.90
2023-02-03T21:18:55.016Z,9.90
2023-02-03T21:21:33.278Z,9.90
2023-02-03T21:24:01.849Z,9.80
2023-02-03T21:26:33.593Z,9.80
2023-02-03T21:29:02.271Z,9.80
2023-02-03T21:31:34.943Z,9.80
2023-02-03T21:34:04.565Z,9.80
2023-02-03T21:36:37.548Z,9.80
2023-02-03T21:39:26.646Z,9.70
2023-02-03T21:41:54.956Z,9.70
2023-02-03T21:44:36.188Z,9.70
2023-02-03T21:47:05.708Z,9.70
2023-02-03T21:49:36.436Z,9.60
2023-02-03T21:52:04.083Z,9.60
2023-02-03T21:54:37.280Z,9.60
2023-02-03T21:57:05.272Z,9.60
2023-02-03T21:59:39.132Z,9.60
2023-02-03T22:02:41.888Z,9.60
2023-02-03T22:05:16.438Z,9.60
2023-02-03T22:07:44.002Z,9.60
2023-02-03T22:10:11.809Z,9.60
2023-02-03T22:12:39.388Z,9.60
2023-02-03T22:15:07.500Z,9.60
2023-02-03T22:17:35.120Z,9.50
2023-02-03T22:20:02.639Z,9.50
2023-02-03T22:22:31.873Z,9.50
2023-02-03T22:24:59.563Z,9.50
2023-02-03T22:27:27.204Z,9.50
2023-02-03T22:29:56.517Z,9.50
2023-02-03T22:32:24.384Z,9.50
2023-02-03T22:34:51.908Z,9.50
2023-02-03T22:37:19.516Z,9.50
2023-02-03T22:39:47.062Z,9.50
2023-02-03T22:42:16.027Z,9.50
2023-02-03T22:44:43.567Z,9.50
2023-02-03T22:47:11.129Z,9.50
2023-02-03T22:49:38.831Z,9.50
2023-02-03T22:52:06.425Z,9.50
2023-02-03T22:54:35.153Z,9.50
2023-02-03T22:57:03.221Z,9.50
2023-02-03T22:59:30.817Z,9.50
2023-02-03T23:01:58.487Z,9.50
2023-02-03T23:04:26.041Z,9.50
2023-02-03T23:06:53.705Z,9.50
2023-02-03T23:09:21.254Z,9.40
2023-02-03T23:11:48.864Z,9.50
2023-02-03T23:14:16.959Z,9.40
2023-02-03T23:16:44.572Z,9.40
2023-02-03T23:19:12.169Z,9.40
2023-02-03T23:21:40.788Z,9.40
2023-02-03T23:24:08.516Z,9.40
2023-02-03T23:26:36.164Z,9.40
2023-02-03T23:29:03.851Z,9.50
2023-02-03T23:31:31.571Z,9.40
2023-02-03T23:34:18.101Z,9.40
2023-02-03T23:36:45.700Z,9.40
2023-02-03T23:39:13.344Z,9.40
2023-02-03T23:41:40.994Z,9.40
2023-02-03T23:44:09.377Z,9.40
2023-02-03T23:46:36.990Z,9.40
2023-02-03T23:49:04.577Z,9.40
2023-02-03T23:51:32.185Z,9.40
2023-02-03T23:53:59.688Z,9.40
2023-02-03T23:56:27.276Z,9.40
2023-02-03T23:58:54.779Z,9.40
